Time;durP1;ratioP1;P1;durP2;ratioP2;P2;SDS_P1;SDS_P2;PMS_P1;PMS_P2;Temp;Humidity;BMP_temperature;BMP_pressure;BME280_temperature;BME280_humidity;BME280_pressure;Samples;Min_cycle;Max_cycle;Signal;HPM_P1;HPM_P2
2022/05/02 00:01:45;;;;;;;18.88;12.13;;;;;;;6.58;89.46;101950.22;5347977;27;20053;-64
2022/05/02 00:04:16;;;;;;;16.80;11.68;;;;;;;6.51;88.85;101950.53;5353408;27;20536;-64
2022/05/02 00:06:47;;;;;;;17.02;11.18;;;;;;;6.46;88.87;101951.59;5351194;27;20057;-64
2022/05/02 00:09:18;;;;;;;17.80;11.90;;;;;;;6.45;88.72;101952.50;5354004;27;20031;-64
2022/05/02 00:11:50;;;;;;;15.50;11.73;;;;;;;6.39;89.96;101955.41;5351109;27;20052;-64
2022/05/02 00:14:21;;;;;;;14.48;11.65;;;;;;;6.41;89.68;101948.25;5348627;27;20027;-64
2022/05/02 00:16:52;;;;;;;17.35;11.70;;;;;;;6.43;90.50;101943.75;5344589;27;20039;-64
2022/05/02 00:19:24;;;;;;;19.17;12.38;;;;;;;6.34;91.38;101941.47;5341943;27;20046;-64
2022/05/02 00:21:55;;;;;;;17.50;11.40;;;;;;;6.35;90.96;101948.50;5350428;27;20031;-64
2022/05/02 00:24:26;;;;;;;16.73;12.32;;;;;;;6.25;91.41;101942.72;5355739;27;20027;-64
2022/05/02 00:26:58;;;;;;;15.00;11.35;;;;;;;6.24;91.13;101942.78;5340115;27;20265;-64
2022/05/02 00:29:29;;;;;;;15.57;12.23;;;;;;;6.21;91.36;101937.59;5337286;27;20749;-64
2022/05/02 00:32:00;;;;;;;15.82;13.02;;;;;;;6.21;91.58;101932.28;5347109;27;20022;-64
2022/05/02 00:34:31;;;;;;;18.20;12.05;;;;;;;6.20;92.41;101939.38;5346707;27;20105;-64
2022/05/02 00:37:03;;;;;;;16.48;12.43;;;;;;;6.18;92.42;101927.13;5352215;27;20035;-64
2022/05/02 00:39:34;;;;;;;17.05;12.45;;;;;;;6.11;92.85;101931.81;5359024;27;20105;-64
2022/05/02 00:42:06;;;;;;;17.08;12.60;;;;;;;6.06;91.57;101929.34;5361183;27;20073;-64
2022/05/02 00:44:41;;;;;;;19.48;13.18;;;;;;;5.94;92.19;101924.50;5353876;27;20069;-64
2022/05/02 00:47:15;;;;;;;18.00;13.43;;;;;;;5.86;91.68;101924.81;5356526;27;21097;-64
2022/05/02 00:49:48;;;;;;;16.05;12.52;;;;;;;5.90;91.87;101923.75;5349782;27;20117;-64
2022/05/02 00:52:20;;;;;;;15.68;12.48;;;;;;;5.94;91.56;101921.84;5355068;27;20038;-64
2022/05/02 00:54:51;;;;;;;16.92;13.27;;;;;;;5.82;92.39;101922.34;5358891;27;20023;-64
2022/05/02 00:57:23;;;;;;;19.30;13.75;;;;;;;5.83;93.20;101929.34;5354164;27;20530;-64
2022/05/02 00:59:54;;;;;;;22.20;14.02;;;;;;;5.79;92.50;101925.09;5359365;27;20026;-64
2022/05/02 01:02:25;;;;;;;19.95;13.63;;;;;;;5.79;92.08;101917.16;5356091;27;20555;-64
2022/05/02 01:04:56;;;;;;;20.08;15.15;;;;;;;5.75;92.18;101916.41;5355655;27;20484;-64
2022/05/02 01:07:28;;;;;;;20.92;13.70;;;;;;;5.77;91.69;101919.88;5352730;27;20468;-64
2022/05/02 01:10:00;;;;;;;20.27;13.95;;;;;;;5.73;91.67;101918.25;5363081;27;20376;-64
2022/05/02 01:12:31;;;;;;;19.98;14.70;;;;;;;5.71;92.67;101925.41;5355533;27;20027;-64
2022/05/02 01:15:03;;;;;;;20.52;14.05;;;;;;;5.72;91.64;101913.91;5352313;27;20022;-64
2022/05/02 01:17:34;;;;;;;19.38;14.07;;;;;;;5.64;91.64;101918.63;5355325;27;20151;-64
2022/05/02 01:20:10;;;;;;;20.77;14.07;;;;;;;5.67;91.53;101916.72;5352111;27;20108;-64
2022/05/02 01:22:44;;;;;;;19.45;14.18;;;;;;;5.61;91.66;101924.91;5357398;27;20134;-64
2022/05/02 01:25:16;;;;;;;20.80;13.75;;;;;;;5.57;91.67;101919.78;5355209;27;20041;-64
2022/05/02 01:27:47;;;;;;;23.67;15.50;;;;;;;5.60;92.34;101919.66;5354718;27;20403;-64
2022/05/02 01:30:18;;;;;;;23.35;14.10;;;;;;;5.55;92.33;101919.00;5351415;27;20034;-64
2022/05/02 01:32:49;;;;;;;20.95;14.60;;;;;;;5.47;92.43;101909.53;5350529;27;20513;-64
2022/05/02 01:35:21;;;;;;;20.45;13.88;;;;;;;5.33;91.72;101908.34;5354553;27;20117;-64
2022/05/02 01:37:52;;;;;;;19.92;14.40;;;;;;;5.41;92.40;101912.44;5352064;27;20034;-64
2022/05/02 01:40:23;;;;;;;19.50;14.18;;;;;;;5.37;92.01;101909.94;5357531;27;20038;-64
2022/05/02 01:42:54;;;;;;;19.85;15.35;;;;;;;5.39;93.40;101911.63;5346050;27;20308;-64
2022/05/02 01:45:26;;;;;;;20.65;15.38;;;;;;;5.25;93.29;101901.56;5348007;27;20038;-64
2022/05/02 01:47:57;;;;;;;18.70;14.20;;;;;;;5.36;93.02;101908.22;5359225;27;20138;-64
2022/05/02 01:50:28;;;;;;;23.55;15.63;;;;;;;5.27;93.61;101902.38;5354616;27;20445;-64
2022/05/02 01:53:00;;;;;;;21.63;14.77;;;;;;;5.28;93.53;101905.88;5351650;27;20030;-64
2022/05/02 01:55:31;;;;;;;19.83;15.20;;;;;;;5.26;93.18;101897.97;5355045;27;20035;-64
2022/05/02 01:58:02;;;;;;;21.02;14.40;;;;;;;5.20;93.65;101895.56;5347001;27;20070;-64
2022/05/02 02:00:34;;;;;;;20.92;14.50;;;;;;;5.22;93.59;101900.81;5353369;27;20030;-64
2022/05/02 02:03:05;;;;;;;23.55;15.60;;;;;;;5.21;93.32;101893.78;5350687;27;20031;-64
2022/05/02 02:05:49;;;;;;;20.27;14.80;;;;;;;5.16;93.67;101891.31;5354089;27;20103;-64
2022/05/02 02:08:23;;;;;;;20.93;15.63;;;;;;;5.15;94.28;101896.66;5353124;27;20031;-64
2022/05/02 02:10:59;;;;;;;22.48;15.40;;;;;;;5.09;94.68;101893.31;5351008;27;20288;-64
2022/05/02 02:13:31;;;;;;;20.30;14.48;;;;;;;4.98;92.90;101902.56;5352685;27;20022;-64
2022/05/02 02:16:07;;;;;;;22.60;15.20;;;;;;;4.90;92.90;101894.91;5349129;27;20038;-64
2022/05/02 02:18:41;;;;;;;21.85;14.88;;;;;;;4.94;93.35;101904.44;5350863;27;20061;-65
2022/05/02 02:21:12;;;;;;;22.60;15.77;;;;;;;4.96;94.23;101899.97;5355759;27;20122;-64
2022/05/02 02:23:44;;;;;;;23.65;15.13;;;;;;;4.88;93.14;101902.03;5354130;27;20110;-64
2022/05/02 02:26:16;;;;;;;22.95;15.95;;;;;;;4.80;94.17;101897.00;5349228;27;20109;-64
2022/05/02 02:28:47;;;;;;;21.23;16.20;;;;;;;4.83;94.83;101896.91;5353006;27;20045;-64
2022/05/02 02:31:18;;;;;;;22.92;16.10;;;;;;;4.67;94.39;101901.00;5350928;27;20015;-64
2022/05/02 02:33:49;;;;;;;20.58;16.00;;;;;;;4.75;94.76;101891.00;5345284;27;20030;-64
2022/05/02 02:36:21;;;;;;;20.88;15.65;;;;;;;4.76;94.97;101891.91;5361453;27;20105;-64
2022/05/02 02:38:52;;;;;;;20.92;15.07;;;;;;;4.73;94.64;101895.50;5344890;27;20082;-64
2022/05/02 02:41:23;;;;;;;22.35;16.00;;;;;;;4.70;95.18;101893.84;5355258;27;20043;-64
2022/05/02 02:43:54;;;;;;;22.58;16.13;;;;;;;4.69;95.71;101891.25;5354546;27;20052;-64
2022/05/02 02:46:26;;;;;;;26.40;16.45;;;;;;;4.55;95.16;101894.38;5352705;27;20023;-64
2022/05/02 02:48:57;;;;;;;22.60;16.48;;;;;;;4.62;96.02;101887.06;5340887;27;20019;-64
2022/05/02 02:51:28;;;;;;;22.20;16.38;;;;;;;4.63;95.66;101886.16;5356999;27;20027;-64
2022/05/02 02:53:59;;;;;;;28.92;17.55;;;;;;;4.54;96.38;101889.13;5356726;27;20083;-64
2022/05/02 02:56:31;;;;;;;23.23;17.08;;;;;;;4.54;95.53;101889.13;5350800;27;20094;-64
2022/05/02 02:59:02;;;;;;;26.40;17.13;;;;;;;4.58;96.29;101877.53;5355497;27;20073;-64
2022/05/02 03:01:34;;;;;;;23.42;17.85;;;;;;;4.55;95.75;101877.66;5348117;27;20027;-64
2022/05/02 03:06:58;;;;;;;27.00;17.55;;;;;;;4.49;96.57;101870.81;5347058;27;20035;-64
2022/05/02 03:09:30;;;;;;;24.23;17.23;;;;;;;4.40;95.28;101868.47;5339808;27;20484;-64
2022/05/02 03:12:02;;;;;;;25.23;17.70;;;;;;;4.42;95.55;101877.22;5337882;27;20389;-64
2022/05/02 03:14:33;;;;;;;29.08;18.92;;;;;;;4.27;96.09;101875.94;5346420;27;20035;-64
2022/05/02 03:17:05;;;;;;;29.60;17.52;;;;;;;4.27;95.72;101870.66;5335399;27;20151;-64
2022/05/02 03:19:37;;;;;;;27.55;17.27;;;;;;;4.28;95.56;101875.03;5350747;27;20158;-64
2022/05/02 03:22:08;;;;;;;25.95;17.95;;;;;;;4.24;96.41;101868.13;5348381;27;20117;-64
2022/05/02 03:24:40;;;;;;;27.55;17.75;;;;;;;4.29;97.33;101872.31;5349327;27;20037;-64
2022/05/02 03:27:11;;;;;;;23.70;17.67;;;;;;;4.27;96.41;101870.66;5354997;27;20127;-64
2022/05/02 03:29:43;;;;;;;24.63;17.15;;;;;;;4.24;96.72;101862.84;5358441;27;20034;-64
2022/05/02 03:32:14;;;;;;;23.33;18.02;;;;;;;4.15;96.88;101871.94;5353259;27;20069;-64
2022/05/02 03:34:45;;;;;;;23.52;17.52;;;;;;;4.19;96.65;101873.56;5348912;27;20027;-64
2022/05/02 03:37:16;;;;;;;24.35;16.80;;;;;;;4.16;96.78;101867.50;5350235;27;20034;-64
2022/05/02 03:39:48;;;;;;;25.52;16.98;;;;;;;4.13;96.56;101871.13;5348074;27;20053;-64
2022/05/02 03:42:19;;;;;;;26.23;17.42;;;;;;;4.17;96.68;101871.88;5357591;27;20018;-64
2022/05/02 03:44:51;;;;;;;25.98;17.58;;;;;;;4.13;96.41;101866.69;5353823;27;20033;-64
2022/05/02 03:47:23;;;;;;;25.45;17.70;;;;;;;4.10;97.78;101864.16;5351715;27;20031;-64
2022/05/02 03:49:54;;;;;;;22.33;16.40;;;;;;;3.94;96.64;101865.56;5354875;27;20031;-64
2022/05/02 03:52:25;;;;;;;24.85;16.92;;;;;;;4.03;97.48;101862.63;5341605;27;20019;-64
2022/05/02 03:54:56;;;;;;;22.90;16.85;;;;;;;3.99;97.49;101860.13;5359767;27;20035;-64
2022/05/02 03:57:28;;;;;;;24.38;17.17;;;;;;;3.98;97.12;101861.91;5350807;27;20026;-64
2022/05/02 03:59:59;;;;;;;23.80;17.15;;;;;;;3.96;97.20;101869.03;5351566;27;20035;-64
2022/05/02 04:02:30;;;;;;;27.70;18.30;;;;;;;3.87;98.03;101867.56;5346163;27;20035;-64
2022/05/02 04:05:02;;;;;;;25.00;17.02;;;;;;;3.89;97.67;101863.09;5349024;27;20065;-64
2022/05/02 04:07:34;;;;;;;25.63;16.85;;;;;;;3.90;97.39;101871.88;5346081;27;20397;-64
2022/05/02 04:10:05;;;;;;;25.27;17.40;;;;;;;3.90;97.29;101871.88;5343393;27;20031;-64
2022/05/02 04:12:39;;;;;;;22.20;16.42;;;;;;;3.93;96.94;101866.47;5350441;27;20495;-64
2022/05/02 04:15:10;;;;;;;21.95;15.65;;;;;;;3.89;96.92;101872.75;5349426;27;20031;-64
2022/05/02 04:17:41;;;;;;;23.83;17.10;;;;;;;3.88;98.49;101871.91;5346930;27;20139;-64
2022/05/02 04:20:13;;;;;;;22.33;15.98;;;;;;;3.91;98.86;101873.59;5338128;27;20120;-64
2022/05/02 04:22:44;;;;;;;23.38;15.63;;;;;;;3.89;98.03;101864.84;5348799;27;20205;-64
2022/05/02 04:25:16;;;;;;;23.20;16.40;;;;;;;3.87;97.35;101864.91;5351772;27;20039;-64
2022/05/02 04:27:47;;;;;;;25.50;16.13;;;;;;;3.86;98.35;101873.75;5345042;27;20033;-64
2022/05/02 04:30:19;;;;;;;25.10;16.98;;;;;;;3.85;99.09;101866.72;5344210;27;20136;-64
2022/05/02 04:32:50;;;;;;;26.27;16.88;;;;;;;3.87;99.84;101870.19;5347968;27;20472;-64
2022/05/02 04:35:21;;;;;;;26.98;17.77;;;;;;;3.77;99.54;101866.09;5345035;27;20038;-64
2022/05/02 04:37:53;;;;;;;22.65;17.25;;;;;;;3.82;98.76;101863.34;5348837;27;20027;-64
2022/05/02 04:40:24;;;;;;;25.98;17.13;;;;;;;3.76;99.03;101872.31;5351038;27;20038;-64
2022/05/02 04:42:56;;;;;;;27.35;18.65;;;;;;;3.85;99.95;101863.22;5348387;27;20087;-64
2022/05/02 04:45:27;;;;;;;25.90;18.35;;;;;;;3.75;99.73;101861.81;5349601;27;20744;-65
2022/05/02 04:47:58;;;;;;;28.13;19.55;;;;;;;3.83;100.00;101868.53;5348205;27;20019;-64
2022/05/02 04:50:29;;;;;;;26.40;17.52;;;;;;;3.80;99.38;101865.16;5351361;27;20477;-64
2022/05/02 04:53:01;;;;;;;28.67;18.98;;;;;;;3.77;99.37;101866.09;5352633;27;20091;-64
2022/05/02 04:55:32;;;;;;;26.50;19.33;;;;;;;3.87;100.00;101870.19;5345016;27;20033;-64
2022/05/02 04:58:03;;;;;;;30.48;19.83;;;;;;;3.83;100.00;101865.06;5352662;27;20535;-64
2022/05/02 05:00:34;;;;;;;29.70;19.83;;;;;;;3.83;100.00;101880.88;5356417;27;20106;-64
2022/05/02 05:03:06;;;;;;;28.17;18.55;;;;;;;3.86;99.84;101876.38;5356776;27;20023;-64
2022/05/02 05:05:37;;;;;;;25.27;19.77;;;;;;;3.87;100.00;101874.59;5353289;27;20026;-64
2022/05/02 05:08:08;;;;;;;29.67;20.17;;;;;;;3.97;100.00;101880.44;5347234;27;20031;-64
2022/05/02 05:10:53;;;;;;;29.48;19.92;;;;;;;4.02;100.00;101878.53;5349108;27;20035;-64
2022/05/02 05:13:33;;;;;;;32.65;20.95;;;;;;;4.08;100.00;101875.69;5344447;27;20033;-64
2022/05/02 05:16:28;;;;;;;30.52;21.30;;;;;;;4.19;100.00;101886.75;5344190;27;20973;-64
2022/05/02 05:19:02;;;;;;;;;;;;;;;4.17;100.00;101877.16;5350558;27;20053;-64
2022/05/02 05:22:00;;;;;;;28.85;20.23;;;;;;;4.19;100.00;101875.34;5350037;27;19926;-64
2022/05/02 05:25:02;;;;;;;32.00;21.45;;;;;;;4.26;100.00;101880.38;5352950;27;20057;-64
2022/05/02 05:27:56;;;;;;;33.05;21.33;;;;;;;4.32;100.00;101879.28;5352679;27;20451;-64
2022/05/02 05:30:38;;;;;;;31.45;21.40;;;;;;;4.39;100.00;101878.19;5331079;27;20039;-64
2022/05/02 05:33:29;;;;;;;36.15;22.75;;;;;;;4.41;100.00;101875.47;5355972;27;20030;-64
2022/05/02 05:36:23;;;;;;;37.10;24.33;;;;;;;4.55;100.00;101865.28;5354645;27;20026;-64
2022/05/02 05:39:05;;;;;;;36.30;25.03;;;;;;;4.65;100.00;101864.03;5336312;27;20029;-64
2022/05/02 05:42:04;;;;;;;36.75;24.30;;;;;;;4.74;100.00;101873.44;5355178;27;20033;-64
2022/05/02 05:44:38;;;;;;;39.40;25.00;;;;;;;4.88;100.00;101867.66;5352326;27;20023;-64
2022/05/02 05:47:21;;;;;;;38.70;25.90;;;;;;;4.99;100.00;101868.13;5359548;27;20559;-64
2022/05/02 05:50:08;;;;;;;36.22;24.73;;;;;;;5.03;100.00;101874.19;5353885;27;20041;-64
2022/05/02 05:52:58;;;;;;;36.50;25.90;;;;;;;5.14;100.00;101877.28;5361879;27;20057;-65
2022/05/02 05:55:54;;;;;;;39.90;26.95;;;;;;;5.32;100.00;101872.22;5363060;27;20111;-64
2022/05/02 05:58:46;;;;;;;38.65;26.55;;;;;;;5.41;100.00;101875.38;5285925;27;20055;-64
2022/05/02 06:01:32;;;;;;;38.72;26.23;;;;;;;5.49;100.00;101877.72;5355697;27;20033;-64
2022/05/02 06:04:06;;;;;;;39.72;26.75;;;;;;;5.75;99.59;101874.03;5352179;27;20114;-64
2022/05/02 06:06:39;;;;;;;;;;;;;;;5.63;98.87;101879.84;5349306;27;20480;-64
2022/05/02 06:09:12;;;;;;;36.85;26.05;;;;;;;5.88;99.00;101875.28;5361614;27;19919;-64
2022/05/02 06:11:48;;;;;;;36.78;26.65;;;;;;;6.12;98.64;101877.91;5354121;27;20023;-64
2022/05/02 06:14:25;;;;;;;35.40;26.13;;;;;;;6.22;98.06;101887.19;5356694;27;20022;-64
2022/05/02 06:19:48;;;;;;;32.05;25.17;;;;;;;6.55;97.00;101875.22;5347234;27;20082;-64
2022/05/02 06:22:19;;;;;;;33.42;24.63;;;;;;;6.67;96.10;101880.00;5334257;27;20452;-64
2022/05/02 06:24:55;;;;;;;33.50;25.48;;;;;;;6.76;95.00;101879.59;5326411;27;20031;-64
2022/05/02 06:27:26;;;;;;;32.70;24.33;;;;;;;6.93;94.74;101883.31;5343147;27;20058;-64
2022/05/02 06:30:01;;;;;;;34.03;25.08;;;;;;;6.92;95.11;101885.06;5347616;27;20535;-64
2022/05/02 06:32:35;;;;;;;33.17;24.88;;;;;;;7.12;94.43;101886.00;5346946;27;20433;-64
2022/05/02 06:35:07;;;;;;;33.05;24.05;;;;;;;7.20;94.16;101881.19;5345605;27;20514;-64
2022/05/02 06:38:13;;;;;;;35.70;23.98;;;;;;;7.24;93.47;101880.97;5346552;27;21241;-64
2022/05/02 06:41:05;;;;;;;28.83;22.70;;;;;;;7.36;93.30;101889.31;5351226;27;20037;-64
2022/05/02 06:43:48;;;;;;;32.58;23.30;;;;;;;7.45;92.98;101894.19;5344966;27;20060;-64
2022/05/02 06:46:35;;;;;;;35.13;24.35;;;;;;;7.72;93.34;101885.84;5345196;27;21346;-64
2022/05/02 06:49:12;;;;;;;35.08;23.40;;;;;;;7.88;91.83;101892.19;5349589;27;20028;-64
2022/05/02 06:51:49;;;;;;;30.98;21.50;;;;;;;8.09;90.91;101884.91;5350912;27;20034;-64
2022/05/02 06:54:49;;;;;;;27.52;21.55;;;;;;;8.13;91.01;101889.19;5344436;27;20038;-64
2022/05/02 06:57:36;;;;;;;30.15;22.45;;;;;;;8.36;90.49;101882.69;5346730;27;20027;-64
2022/05/02 07:00:10;;;;;;;31.23;22.65;;;;;;;8.47;89.51;101884.84;5343126;27;20479;-64
2022/05/02 07:03:02;;;;;;;26.05;21.70;;;;;;;8.59;88.51;101878.03;5350899;27;20037;-64
2022/05/02 07:05:51;;;;;;;26.63;21.45;;;;;;;8.84;87.86;101880.28;5347935;27;20037;-64
2022/05/02 07:08:28;;;;;;;26.90;21.40;;;;;;;8.90;86.48;101876.41;5348719;27;20034;-64
2022/05/02 07:11:04;;;;;;;24.83;19.80;;;;;;;9.20;85.04;101879.25;5349740;27;20026;-64
2022/05/02 07:14:08;;;;;;;24.67;18.88;;;;;;;9.30;83.39;101875.16;5349219;27;20034;-64
2022/05/02 07:16:48;;;;;;;25.58;19.80;;;;;;;9.57;82.74;101879.91;5350448;27;20027;-64
2022/05/02 07:19:22;;;;;;;28.20;19.30;;;;;;;9.72;82.14;101887.03;5349325;27;20099;-64
2022/05/02 07:22:04;;;;;;;22.88;17.58;;;;;;;9.83;80.66;101873.09;5352801;27;20062;-64
2022/05/02 07:24:47;;;;;;;23.85;17.15;;;;;;;10.07;79.42;101888.63;5348459;27;20496;-64
2022/05/02 07:27:48;;;;;;;27.42;15.80;;;;;;;10.21;78.72;101880.69;5351405;27;20102;-64
2022/05/02 07:30:21;;;;;;;21.23;16.73;;;;;;;10.33;78.11;101879.16;5347726;27;20027;-64
2022/05/02 07:32:53;;;;;;;22.17;16.05;;;;;;;10.64;75.09;101880.00;5347233;27;20026;-64
2022/05/02 07:35:25;;;;;;;21.77;16.00;;;;;;;10.68;74.73;101877.06;5335067;27;20043;-64
2022/05/02 07:37:58;;;;;;;18.63;14.80;;;;;;;10.83;75.00;101880.59;5350986;27;20030;-64
2022/05/02 07:40:31;;;;;;;19.30;15.23;;;;;;;10.95;71.14;101885.19;5345082;27;20038;-64
2022/05/02 07:43:03;;;;;;;18.90;14.43;;;;;;;11.18;70.79;101882.91;5343059;27;20035;-64
2022/05/02 07:45:35;;;;;;;20.17;14.00;;;;;;;11.23;70.43;101879.94;5342351;27;20295;-64
2022/05/02 07:48:11;;;;;;;22.00;14.23;;;;;;;11.37;69.03;101885.25;5351196;27;20037;-62
2022/05/02 07:50:44;;;;;;;19.45;14.05;;;;;;;11.41;68.28;101889.47;5345861;27;20023;-64
2022/05/02 07:53:15;;;;;;;19.67;14.05;;;;;;;11.46;70.27;101878.50;5346625;27;20127;-64
2022/05/02 07:55:47;;;;;;;21.60;15.13;;;;;;;11.55;71.41;101884.09;5347579;27;20488;-64
2022/05/02 07:58:19;;;;;;;17.60;14.77;;;;;;;11.80;68.80;101882.53;5350033;27;20034;-64
2022/05/02 08:00:50;;;;;;;16.73;13.50;;;;;;;11.98;66.06;101888.50;5340947;27;20030;-64
2022/05/02 08:03:23;;;;;;;17.52;14.23;;;;;;;12.02;66.17;101883.81;5351078;27;20079;-64
2022/05/02 08:06:01;;;;;;;17.27;13.45;;;;;;;12.21;63.80;101891.47;5348173;27;20561;-64
2022/05/02 08:08:52;;;;;;;19.42;13.82;;;;;;;12.28;65.30;101885.63;5351763;27;20069;-64
2022/05/02 08:11:34;;;;;;;16.85;12.20;;;;;;;12.35;58.83;101884.25;5347716;27;20030;-64
2022/05/02 08:14:29;;;;;;;17.88;13.00;;;;;;;12.53;61.26;101886.66;5347214;27;20075;-64
2022/05/02 08:17:21;;;;;;;16.52;11.60;;;;;;;12.53;60.09;101876.78;5346647;27;20077;-64
2022/05/02 08:20:18;;;;;;;16.45;11.55;;;;;;;12.66;61.72;101879.50;5348158;27;20043;-64
2022/05/02 08:29:00;;;;;;;17.67;11.73;;;;;;;12.97;56.67;101871.16;5345145;27;20399;-64
2022/05/02 08:31:55;;;;;;;14.93;11.30;;;;;;;13.06;56.85;101879.38;5347371;27;20019;-64
2022/05/02 08:34:45;;;;;;;15.80;11.35;;;;;;;13.18;56.01;101880.34;5349769;27;20042;-64
2022/05/02 08:37:41;;;;;;;14.90;11.38;;;;;;;13.28;55.36;101883.22;5346927;27;20057;-65
2022/05/02 08:40:24;;;;;;;15.48;11.02;;;;;;;13.36;56.55;101872.84;5341843;27;20046;-65
2022/05/02 08:43:26;;;;;;;15.32;11.23;;;;;;;13.51;57.95;101874.41;5341684;27;20023;-65
2022/05/02 08:46:34;;;;;;;13.15;10.60;;;;;;;13.64;57.15;101876.22;5349893;27;20031;-65
2022/05/02 08:49:35;;;;;;;13.93;11.50;;;;;;;13.57;55.95;101874.94;5348796;27;20377;-65
2022/05/02 08:52:32;;;;;;;17.52;11.52;;;;;;;13.82;54.33;101869.47;5352644;27;20031;-65
2022/05/02 08:55:25;;;;;;;14.18;11.02;;;;;;;13.92;54.74;101873.22;5346757;27;20041;-65
2022/05/02 08:58:15;;;;;;;15.15;11.27;;;;;;;14.09;53.67;101871.06;5354240;27;20372;-65
2022/05/02 09:01:14;;;;;;;13.90;9.77;;;;;;;14.15;52.71;101875.13;5352339;27;20022;-65
2022/05/02 09:03:59;;;;;;;13.13;11.05;;;;;;;14.14;54.15;101876.13;5352425;27;20079;-65
2022/05/02 09:06:39;;;;;;;12.60;10.25;;;;;;;14.11;51.13;101874.50;5354158;27;20145;-65
2022/05/02 09:09:25;;;;;;;14.57;10.35;;;;;;;14.24;52.79;101872.59;5345691;27;20361;-65
2022/05/02 09:12:02;;;;;;;13.68;10.52;;;;;;;14.34;52.22;101871.91;5348559;27;20029;-65
2022/05/02 09:15:11;;;;;;;13.05;10.10;;;;;;;14.28;54.79;101866.03;5341282;27;20163;-65
2022/05/02 09:18:11;;;;;;;13.35;9.38;;;;;;;14.38;52.19;101868.00;5345646;27;20073;-65
2022/05/02 09:20:56;;;;;;;10.82;8.90;;;;;;;14.37;51.80;101869.00;5342756;27;20099;-65
2022/05/02 09:23:52;;;;;;;12.38;8.55;;;;;;;14.54;52.72;101870.41;5343309;27;20033;-65
2022/05/02 09:26:48;;;;;;;12.68;9.48;;;;;;;14.68;49.60;101868.38;5345995;27;20395;-65
2022/05/02 09:29:47;;;;;;;13.85;9.82;;;;;;;14.74;51.07;101860.81;5345831;27;20034;-65
2022/05/02 09:32:47;;;;;;;12.15;9.75;;;;;;;14.81;51.46;101852.16;5343454;27;20049;-65
2022/05/02 09:35:31;;;;;;;13.00;10.15;;;;;;;14.88;48.54;101855.19;5347430;27;20030;-65
2022/05/02 09:38:25;;;;;;;;;;;;;;;14.87;47.07;101856.19;5351359;27;20042;-65
2022/05/02 09:41:09;;;;;;;15.43;10.07;;;;;;;14.74;48.13;101858.13;5345464;27;19918;-65
2022/05/02 09:50:10;;;;;;;13.10;10.05;;;;;;;15.01;48.06;101844.34;5349060;27;20070;-67
2022/05/02 09:53:00;;;;;;;12.25;9.63;;;;;;;15.01;47.21;101847.88;5349713;27;20034;-66
2022/05/02 09:58:33;;;;;;;13.30;10.50;;;;;;;15.05;46.33;101835.94;5351370;27;20035;-64
2022/05/02 10:01:21;;;;;;;11.43;9.18;;;;;;;15.19;46.85;101832.13;5353558;27;20116;-64
2022/05/02 10:03:58;;;;;;;11.57;9.32;;;;;;;15.09;45.47;101832.03;5349784;27;20027;-65
2022/05/02 10:06:35;;;;;;;13.20;10.00;;;;;;;15.31;44.50;101841.03;5350474;27;20480;-65
2022/05/02 10:09:31;;;;;;;12.85;8.85;;;;;;;15.41;47.22;101843.84;5351597;27;20041;-65
2022/05/02 10:12:07;;;;;;;12.68;9.70;;;;;;;15.58;45.79;101834.41;5348642;27;20030;-65
2022/05/02 10:15:00;;;;;;;13.68;9.75;;;;;;;15.40;45.10;101829.56;5347525;27;20039;-65
2022/05/02 10:18:17;;;;;;;14.82;9.63;;;;;;;15.48;46.64;101829.78;5347377;27;20035;-65
2022/05/02 10:21:11;;;;;;;10.68;9.18;;;;;;;15.35;47.98;101836.28;5344690;27;20079;-65
2022/05/02 10:23:57;;;;;;;10.07;8.43;;;;;;;15.52;47.99;101838.44;5343015;27;20096;-65
2022/05/02 10:26:36;;;;;;;12.23;8.88;;;;;;;15.44;45.34;101828.31;5343079;27;20499;-64
2022/05/02 10:29:32;;;;;;;11.68;8.60;;;;;;;15.55;45.76;101823.88;5348899;27;20073;-64
2022/05/02 10:32:07;;;;;;;11.80;8.45;;;;;;;15.66;45.02;101824.69;5348450;27;20483;-65
2022/05/02 10:34:44;;;;;;;10.77;8.60;;;;;;;15.41;45.76;101833.09;5337470;27;20496;-64
2022/05/02 10:37:25;;;;;;;11.48;8.93;;;;;;;15.57;44.33;101833.56;5344369;27;20038;-65
2022/05/02 10:40:04;;;;;;;10.98;8.57;;;;;;;15.64;43.16;101831.19;5345313;27;20031;-65
2022/05/02 10:42:36;;;;;;;12.40;8.43;;;;;;;15.54;44.34;101822.19;5346579;27;20069;-64
2022/05/02 10:45:09;;;;;;;14.02;9.00;;;;;;;15.74;43.76;101816.03;5342675;27;21239;-64
2022/05/02 10:47:50;;;;;;;11.93;8.45;;;;;;;15.71;43.02;101818.97;5338950;27;20525;-65
2022/05/02 10:50:31;;;;;;;12.88;8.00;;;;;;;15.72;43.46;101809.03;5338570;27;20026;-65
2022/05/02 10:53:17;;;;;;;12.25;8.32;;;;;;;15.87;44.04;101805.94;5345415;27;20026;-65
2022/05/02 10:56:43;;;;;;;9.02;7.78;;;;;;;15.96;45.30;101801.66;5345750;27;20022;-66
2022/05/02 10:59:15;;;;;;;12.50;9.18;;;;;;;16.01;42.71;101802.13;5258699;28;20116;-66
2022/05/02 11:01:52;;;;;;;10.13;7.57;;;;;;;16.08;43.11;101802.44;5257256;28;20541;-64
2022/05/02 11:04:41;;;;;;;9.57;7.63;;;;;;;16.19;43.53;101794.31;5322197;27;20031;-63
2022/05/02 11:07:22;;;;;;;9.60;8.38;;;;;;;16.31;44.04;101794.25;5346306;27;20038;-65
2022/05/02 11:10:07;;;;;;;11.90;9.38;;;;;;;16.30;43.03;101790.72;5347011;27;20421;-65
2022/05/02 11:12:47;;;;;;;9.82;8.82;;;;;;;16.32;42.65;101788.75;5345229;27;20487;-67
2022/05/02 11:15:24;;;;;;;11.50;8.57;;;;;;;16.30;41.95;101795.22;5346208;27;20038;-66
2022/05/02 11:20:41;;;;;;;10.98;8.55;;;;;;;16.19;43.01;101790.78;5350030;27;20035;-61
2022/05/02 11:21:12;;;;;;;16.48;9.02;;;;;;;16.45;42.95;101788.50;5341712;27;20416;-66
2022/05/02 11:24:12;;;;;;;14.00;9.30;;;;;;;16.14;42.97;101782.22;5349460;27;20038;-63
2022/05/02 11:27:20;;;;;;;10.57;8.85;;;;;;;16.12;43.91;101779.66;5343112;27;20027;-65
2022/05/02 11:30:01;;;;;;;13.27;9.30;;;;;;;15.99;44.52;101777.19;5341881;27;20117;-65
2022/05/02 11:32:46;;;;;;;10.02;7.80;;;;;;;16.25;43.44;101769.53;5341177;27;20110;-65
2022/05/02 11:35:28;;;;;;;10.05;8.45;;;;;;;16.35;42.71;101775.00;5346479;27;20035;-66
2022/05/02 11:38:18;;;;;;;10.77;8.90;;;;;;;16.41;43.15;101769.06;5339639;27;20018;-65
2022/05/02 11:40:58;;;;;;;11.57;8.02;;;;;;;16.59;43.43;101758.56;5346800;27;20061;-66
2022/05/02 11:43:31;;;;;;;11.15;8.60;;;;;;;16.54;42.93;101760.78;5343803;27;20030;-66
2022/05/02 11:46:18;;;;;;;10.02;7.45;;;;;;;16.67;42.43;101761.41;5344414;27;20982;-66
2022/05/02 11:49:31;;;;;;;11.43;8.23;;;;;;;16.72;43.64;101761.03;5343167;27;20492;-66
2022/05/02 11:52:08;;;;;;;11.57;8.07;;;;;;;16.94;41.42;101764.53;5337588;27;20042;-66
2022/05/02 11:54:40;;;;;;;11.38;8.73;;;;;;;16.86;41.62;101767.91;5342320;27;20381;-66
2022/05/02 11:57:22;;;;;;;11.73;9.40;;;;;;;16.89;41.14;101758.69;5345397;27;20026;-66
2022/05/02 12:00:07;;;;;;;12.25;8.35;;;;;;;16.99;41.26;101768.53;5342811;27;20039;-66
2022/05/02 12:02:42;;;;;;;13.32;9.20;;;;;;;16.88;39.93;101760.56;5343101;27;20550;-66
2022/05/02 12:05:25;;;;;;;11.00;8.13;;;;;;;16.86;41.72;101754.44;5342447;27;20476;-66
2022/05/02 12:08:02;;;;;;;10.70;7.93;;;;;;;17.00;40.12;101756.75;5343472;27;20061;-66
2022/05/02 12:10:41;;;;;;;12.70;8.98;;;;;;;16.96;38.20;101759.88;5345595;27;20030;-66
2022/05/02 12:13:15;;;;;;;11.57;9.48;;;;;;;16.69;39.17;101752.34;5345096;27;20471;-66
2022/05/02 12:15:54;;;;;;;10.55;8.65;;;;;;;16.73;40.30;101753.78;5347040;27;20236;-66
2022/05/02 12:18:39;;;;;;;11.82;9.05;;;;;;;16.76;39.93;101759.75;5344143;27;20519;-66
2022/05/02 12:21:15;;;;;;;10.07;8.32;;;;;;;16.80;39.85;101747.72;5339089;27;20031;-66
2022/05/02 12:23:47;;;;;;;11.15;8.60;;;;;;;16.93;39.05;101755.63;5341762;27;20035;-66
2022/05/02 12:26:20;;;;;;;12.52;8.60;;;;;;;16.99;38.38;101752.38;5348405;27;20423;-66
2022/05/02 12:28:55;;;;;;;11.63;8.07;;;;;;;16.92;38.44;101747.66;5343288;27;20389;-66
2022/05/02 12:31:29;;;;;;;10.98;7.75;;;;;;;17.23;39.61;101746.59;5345513;27;20452;-66